Time;durP1;ratioP1;P1;durP2;ratioP2;P2;SDS_P1;SDS_P2;PMS_P1;PMS_P2;Temp;Humidity;BMP_temperature;BMP_pressure;BME280_temperature;BME280_humidity;BME280_pressure;Samples;Min_cycle;Max_cycle;Signal;HPM_P1;HPM_P2
2021/09/01 00:04:46;;;;;;;6.60;3.47;;;;;;;;;;10278562;28;20076;-60
2021/09/01 00:09:44;;;;;;;6.03;3.30;;;;;;;;;;10279684;28;20045;-60
2021/09/01 00:14:42;;;;;;;4.07;3.42;;;;;;;;;;10278376;28;20533;-60
2021/09/01 00:19:41;;;;;;;6.47;3.15;;;;;;;;;;10279438;28;20029;-60
2021/09/01 00:24:41;;;;;;;6.13;3.80;;;;;;;;;;10279977;28;20049;-60
2021/09/01 00:29:39;;;;;;;6.47;4.10;;;;;;;;;;10277811;28;20071;-60
2021/09/01 00:34:37;;;;;;;4.07;3.67;;;;;;;;;;10278461;28;20083;-60
2021/09/01 00:39:36;;;;;;;3.92;3.20;;;;;;;;;;10278441;28;20075;-63
2021/09/01 00:44:36;;;;;;;5.60;4.00;;;;;;;;;;10277264;28;20068;-60
2021/09/01 00:49:35;;;;;;;3.60;3.20;;;;;;;;;;10277227;28;20045;-60
2021/09/01 00:54:33;;;;;;;7.50;3.80;;;;;;;;;;10278139;28;20037;-60
2021/09/01 00:59:32;;;;;;;4.63;3.60;;;;;;;;;;10275986;28;20497;-60
2021/09/01 01:04:32;;;;;;;4.40;4.00;;;;;;;;;;10275479;28;20501;-60
2021/09/01 01:09:32;;;;;;;5.90;4.22;;;;;;;;;;10277399;28;20051;-60
2021/09/01 01:14:30;;;;;;;5.70;4.25;;;;;;;;;;10276989;28;20037;-59
2021/09/01 01:19:28;;;;;;;3.60;3.30;;;;;;;;;;10277235;28;20052;-60
2021/09/01 01:24:41;;;;;;;5.80;5.18;;;;;;;;;;10277066;28;20065;-59
2021/09/01 01:29:41;;;;;;;5.88;4.18;;;;;;;;;;10277217;28;20060;-60
2021/09/01 01:34:39;;;;;;;4.97;4.22;;;;;;;;;;10276896;28;20041;-60
2021/09/01 01:39:37;;;;;;;5.43;4.20;;;;;;;;;;10275502;28;20049;-60
2021/09/01 01:44:36;;;;;;;4.85;3.90;;;;;;;;;;10276536;28;20079;-59
2021/09/01 01:49:36;;;;;;;7.38;3.70;;;;;;;;;;10275517;28;20234;-59
2021/09/01 01:54:35;;;;;;;7.60;4.00;;;;;;;;;;10276377;28;20072;-59
2021/09/01 01:59:33;;;;;;;5.00;3.97;;;;;;;;;;10276158;28;20045;-59
2021/09/01 02:04:31;;;;;;;4.30;3.55;;;;;;;;;;10275457;28;20076;-59
2021/09/01 02:09:31;;;;;;;4.05;3.65;;;;;;;;;;10276173;28;20339;-60
2021/09/01 02:14:29;;;;;;;7.22;4.07;;;;;;;;;;10276048;28;20422;-60
2021/09/01 02:19:27;;;;;;;4.95;4.32;;;;;;;;;;10275730;28;20074;-60
2021/09/01 02:24:26;;;;;;;4.82;3.70;;;;;;;;;;10275743;28;20406;-60
2021/09/01 02:29:25;;;;;;;4.68;4.18;;;;;;;;;;10280653;28;20596;-59
2021/09/01 02:34:24;;;;;;;4.43;3.70;;;;;;;;;;10283117;28;20041;-59
2021/09/01 02:39:22;;;;;;;4.25;3.80;;;;;;;;;;10283138;28;20072;-59
2021/09/01 02:44:20;;;;;;;5.13;4.03;;;;;;;;;;10282046;28;20506;-60
2021/09/01 02:49:20;;;;;;;6.88;3.85;;;;;;;;;;10281607;28;20497;-60
2021/09/01 02:54:18;;;;;;;5.53;4.50;;;;;;;;;;10282551;28;20505;-60
2021/09/01 02:59:16;;;;;;;4.57;4.18;;;;;;;;;;10281355;28;20037;-60
2021/09/01 03:04:15;;;;;;;6.32;3.75;;;;;;;;;;10280070;28;20065;-60
2021/09/01 03:09:16;;;;;;;5.15;4.55;;;;;;;;;;10295239;28;20072;-58
2021/09/01 03:14:14;;;;;;;4.57;3.63;;;;;;;;;;10296773;28;20060;-59
2021/09/01 03:19:12;;;;;;;6.35;3.63;;;;;;;;;;10289653;28;20053;-58
2021/09/01 03:24:11;;;;;;;6.30;4.10;;;;;;;;;;10288737;28;20064;-59
2021/09/01 03:29:10;;;;;;;4.97;4.57;;;;;;;;;;10302703;28;20084;-60
2021/09/01 03:34:09;;;;;;;5.03;4.53;;;;;;;;;;10286309;28;20083;-60
2021/09/01 03:39:07;;;;;;;5.80;4.55;;;;;;;;;;10291124;28;20091;-60
2021/09/01 03:44:06;;;;;;;5.03;4.63;;;;;;;;;;10279861;28;20052;-60
2021/09/01 03:49:05;;;;;;;6.90;4.32;;;;;;;;;;10279483;28;20093;-60
2021/09/01 03:54:03;;;;;;;4.82;4.15;;;;;;;;;;10280425;28;20051;-60
2021/09/01 03:59:02;;;;;;;5.05;4.65;;;;;;;;;;10279898;28;20040;-60
2021/09/01 04:04:01;;;;;;;8.75;4.65;;;;;;;;;;10279671;28;20045;-60
2021/09/01 04:09:01;;;;;;;5.20;4.70;;;;;;;;;;10279448;28;20222;-60
2021/09/01 04:13:59;;;;;;;9.18;7.15;;;;;;;;;;10279720;28;20040;-60
2021/09/01 04:18:57;;;;;;;7.47;5.22;;;;;;;;;;10279237;28;20048;-60
2021/09/01 04:23:56;;;;;;;5.75;5.25;;;;;;;;;;10278601;28;20414;-60
2021/09/01 04:28:56;;;;;;;9.88;6.00;;;;;;;;;;10278603;28;20080;-60
2021/09/01 04:33:54;;;;;;;10.27;6.90;;;;;;;;;;10278681;28;20056;-60
2021/09/01 04:38:53;;;;;;;9.98;7.03;;;;;;;;;;10278357;28;20041;-61
2021/09/01 04:43:51;;;;;;;18.42;9.32;;;;;;;;;;10278434;28;20045;-60
2021/09/01 04:48:51;;;;;;;10.55;9.25;;;;;;;;;;10273882;28;20084;-60
2021/09/01 04:53:49;;;;;;;11.55;8.63;;;;;;;;;;10272949;28;20495;-61
2021/09/01 04:58:47;;;;;;;11.10;8.82;;;;;;;;;;10272727;28;20079;-60
2021/09/01 05:03:46;;;;;;;32.30;20.92;;;;;;;;;;10275844;28;20041;-60
2021/09/01 05:08:45;;;;;;;9.73;7.32;;;;;;;;;;10277534;28;20473;-60
2021/09/01 05:13:44;;;;;;;9.50;6.45;;;;;;;;;;10276673;28;20049;-60
2021/09/01 05:18:42;;;;;;;30.52;27.30;;;;;;;;;;10277211;28;20049;-60
2021/09/01 05:23:41;;;;;;;7.88;7.13;;;;;;;;;;10276967;28;20391;-60
2021/09/01 05:28:41;;;;;;;6.93;5.28;;;;;;;;;;10276022;28;20077;-60
2021/09/01 05:33:44;;;;;;;9.00;5.72;;;;;;;;;;10276526;28;20079;-60
2021/09/01 05:38:45;;;;;;;10.82;6.07;;;;;;;;;;10276499;28;20036;-60
2021/09/01 05:43:45;;;;;;;35.85;32.15;;;;;;;;;;10276432;28;20072;-60
2021/09/01 05:48:44;;;;;;;8.20;7.50;;;;;;;;;;10275597;28;20089;-59
2021/09/01 05:53:42;;;;;;;8.20;7.40;;;;;;;;;;10276430;28;20041;-59
2021/09/01 05:58:44;;;;;;;7.72;5.03;;;;;;;;;;10275985;28;20064;-60
2021/09/01 06:03:44;;;;;;;6.53;5.97;;;;;;;;;;10281684;28;20505;-59
2021/09/01 06:08:46;;;;;;;15.20;10.38;;;;;;;;;;10284334;28;20079;-59
2021/09/01 06:13:45;;;;;;;7.93;6.50;;;;;;;;;;10283938;28;20502;-60
2021/09/01 06:18:44;;;;;;;8.15;5.43;;;;;;;;;;10283817;28;20052;-60
2021/09/01 06:23:47;;;;;;;8.50;7.13;;;;;;;;;;10283784;28;20080;-60
2021/09/01 06:28:45;;;;;;;8.52;7.72;;;;;;;;;;10283451;28;20076;-59
2021/09/01 06:33:45;;;;;;;8.73;7.88;;;;;;;;;;10283445;28;20045;-60
2021/09/01 06:38:43;;;;;;;7.22;6.53;;;;;;;;;;10283363;28;20076;-60
2021/09/01 06:43:42;;;;;;;10.82;6.57;;;;;;;;;;10282955;28;20036;-60
2021/09/01 06:48:40;;;;;;;13.25;8.77;;;;;;;;;;10282142;28;20081;-60
2021/09/01 06:53:40;;;;;;;6.88;6.03;;;;;;;;;;10282461;28;20077;-60
2021/09/01 06:58:38;;;;;;;8.52;4.97;;;;;;;;;;10282247;28;20041;-60
2021/09/01 07:03:36;;;;;;;6.30;5.32;;;;;;;;;;10282198;28;20096;-60
2021/09/01 07:08:35;;;;;;;13.10;4.93;;;;;;;;;;10282157;28;20076;-61
2021/09/01 07:13:34;;;;;;;8.10;4.32;;;;;;;;;;10281030;28;20041;-60
2021/09/01 07:18:36;;;;;;;4.15;3.40;;;;;;;;;;10281517;28;20049;-60
2021/09/01 07:23:35;;;;;;;9.77;3.25;;;;;;;;;;10281081;28;20045;-61
2021/09/01 07:28:37;;;;;;;5.25;3.28;;;;;;;;;;10280213;28;20072;-60
2021/09/01 07:33:36;;;;;;;5.68;3.30;;;;;;;;;;10281118;28;20045;-61
2021/09/01 07:38:34;;;;;;;6.20;2.58;;;;;;;;;;10280884;28;20095;-61
2021/09/01 07:43:32;;;;;;;9.43;2.20;;;;;;;;;;10279776;28;20036;-61
2021/09/01 07:48:32;;;;;;;2.50;2.30;;;;;;;;;;10279537;28;20090;-58
2021/09/01 07:53:31;;;;;;;2.20;2.00;;;;;;;;;;10280390;28;20498;-60
2021/09/01 07:58:29;;;;;;;3.08;1.85;;;;;;;;;;10279182;28;20044;-60
2021/09/01 08:03:28;;;;;;;14.27;2.90;;;;;;;;;;10279768;28;20041;-60
2021/09/01 08:08:28;;;;;;;5.28;2.25;;;;;;;;;;10279448;28;20091;-60
2021/09/01 08:13:27;;;;;;;3.97;2.00;;;;;;;;;;10279319;28;20068;-60
2021/09/01 08:18:25;;;;;;;2.72;2.25;;;;;;;;;;10278975;28;20530;-60
2021/09/01 08:23:23;;;;;;;4.00;2.15;;;;;;;;;;10279093;28;20048;-60
2021/09/01 08:28:23;;;;;;;2.53;2.00;;;;;;;;;;10277825;28;20080;-60
2021/09/01 08:33:21;;;;;;;7.97;2.60;;;;;;;;;;10278594;28;20515;-60
2021/09/01 08:38:20;;;;;;;2.33;2.10;;;;;;;;;;10278593;28;20052;-61
2021/09/01 08:43:19;;;;;;;7.85;2.28;;;;;;;;;;10278227;28;20060;-60
2021/09/01 08:48:19;;;;;;;5.25;2.08;;;;;;;;;;10277253;28;20089;-61
2021/09/01 08:53:17;;;;;;;9.45;1.70;;;;;;;;;;10277828;28;20053;-60
2021/09/01 08:58:16;;;;;;;2.75;1.77;;;;;;;;;;10277663;28;20041;-61
2021/09/01 09:03:14;;;;;;;4.43;1.58;;;;;;;;;;10277681;28;20414;-61
2021/09/01 09:08:14;;;;;;;5.93;1.85;;;;;;;;;;10277201;28;20108;-61
2021/09/01 09:13:14;;;;;;;7.55;1.63;;;;;;;;;;10277087;28;20441;-61
2021/09/01 09:18:33;;;;;;;5.00;1.83;;;;;;;;;;10276901;28;20045;-61
2021/09/01 09:23:33;;;;;;;9.48;1.75;;;;;;;;;;10272308;28;20080;-61
2021/09/01 09:28:31;;;;;;;7.35;1.58;;;;;;;;;;10275774;28;20077;-61
2021/09/01 09:33:29;;;;;;;10.27;1.42;;;;;;;;;;10276742;28;20466;-61
2021/09/01 09:38:29;;;;;;;5.45;1.60;;;;;;;;;;10276181;28;20406;-61
2021/09/01 09:43:29;;;;;;;4.00;1.70;;;;;;;;;;10276275;28;20498;-61
2021/09/01 09:48:28;;;;;;;6.20;1.83;;;;;;;;;;10275495;28;20478;-61
2021/09/01 09:53:30;;;;;;;2.55;1.30;;;;;;;;;;10276071;28;20056;-61
2021/09/01 09:58:30;;;;;;;10.82;1.40;;;;;;;;;;10275276;28;20049;-61
2021/09/01 10:03:29;;;;;;;3.88;1.52;;;;;;;;;;10276170;28;20087;-61
2021/09/01 10:08:28;;;;;;;3.78;1.70;;;;;;;;;;10275963;28;20106;-61
2021/09/01 10:13:27;;;;;;;4.30;1.60;;;;;;;;;;10276374;28;20093;-60
2021/09/01 10:18:27;;;;;;;3.05;1.30;;;;;;;;;;10275604;28;20049;-61
2021/09/01 10:23:39;;;;;;;4.80;1.70;;;;;;;;;;10275560;28;20095;-61
2021/09/01 10:28:38;;;;;;;3.28;1.30;;;;;;;;;;10275517;28;20081;-61
2021/09/01 10:33:38;;;;;;;6.38;1.50;;;;;;;;;;10275181;28;20072;-59
2021/09/01 10:38:36;;;;;;;1.67;1.42;;;;;;;;;;10275369;28;20068;-60
2021/09/01 10:43:35;;;;;;;12.80;1.77;;;;;;;;;;10275134;28;20041;-60
2021/09/01 10:48:48;;;;;;;2.72;1.70;;;;;;;;;;10275969;28;20081;-60
2021/09/01 13:02:55;;;;;;;8.02;4.13;;;;;;;;;;10276883;28;20057;-60
2021/09/01 13:07:54;;;;;;;7.70;2.50;;;;;;;;;;10277440;28;20387;-61
2021/09/01 13:12:53;;;;;;;12.32;4.03;;;;;;;;;;10276560;28;20462;-61
2021/09/01 13:17:52;;;;;;;5.07;3.35;;;;;;;;;;10276800;28;20052;-61
2021/09/01 13:22:51;;;;;;;5.82;2.83;;;;;;;;;;10276536;28;20075;-61
2021/09/01 13:27:53;;;;;;;13.32;3.50;;;;;;;;;;10277141;28;20045;-61
2021/09/01 13:33:12;;;;;;;11.10;3.75;;;;;;;;;;10276389;28;20091;-59
2021/09/01 13:38:11;;;;;;;15.02;3.75;;;;;;;;;;10276453;28;20583;-59
2021/09/01 13:43:10;;;;;;;5.90;3.30;;;;;;;;;;10276171;28;20079;-60
2021/09/01 13:48:08;;;;;;;9.40;3.25;;;;;;;;;;10275943;28;20045;-59
2021/09/01 13:53:07;;;;;;;11.57;3.40;;;;;;;;;;10275225;28;20072;-59
2021/09/01 13:58:07;;;;;;;7.88;2.53;;;;;;;;;;10275934;28;20502;-59
2021/09/01 14:03:07;;;;;;;20.73;15.88;;;;;;;;;;10274442;28;20056;-62
2021/09/01 14:08:06;;;;;;;6.25;2.38;;;;;;;;;;10275213;28;20048;-61
2021/09/01 14:13:04;;;;;;;6.55;2.33;;;;;;;;;;10274156;28;20052;-61
2021/09/01 14:18:04;;;;;;;8.50;2.65;;;;;;;;;;10275725;28;20069;-61
2021/09/01 14:23:02;;;;;;;5.18;2.08;;;;;;;;;;10276540;28;20520;-61
2021/09/01 14:28:00;;;;;;;6.40;2.40;;;;;;;;;;10283407;28;20044;-62
2021/09/01 14:32:59;;;;;;;8.07;3.63;;;;;;;;;;10283347;28;20088;-61
2021/09/01 14:37:58;;;;;;;5.80;2.58;;;;;;;;;;10283254;28;20532;-61
2021/09/01 14:42:57;;;;;;;5.53;2.53;;;;;;;;;;10283042;28;20049;-61
2021/09/01 14:47:55;;;;;;;2.97;1.52;;;;;;;;;;10282464;28;20075;-60
2021/09/01 14:52:53;;;;;;;6.45;1.92;;;;;;;;;;10282458;28;20092;-60
2021/09/01 14:57:53;;;;;;;3.10;2.00;;;;;;;;;;10282337;28;20041;-59
2021/09/01 15:02:52;;;;;;;6.00;2.30;;;;;;;;;;10282328;28;20061;-58
2021/09/01 15:07:53;;;;;;;8.50;3.28;;;;;;;;;;10281617;28;20060;-59
2021/09/01 15:12:53;;;;;;;6.45;3.17;;;;;;;;;;10281602;28;20087;-59
2021/09/01 15:17:52;;;;;;;6.50;2.50;;;;;;;;;;10281555;28;20080;-59
2021/09/01 15:22:50;;;;;;;9.70;3.47;;;;;;;;;;10281385;28;20055;-59
2021/09/01 15:27:49;;;;;;;4.40;2.47;;;;;;;;;;10281116;28;20044;-59
2021/09/01 15:32:48;;;;;;;3.65;2.70;;;;;;;;;;10280797;28;20072;-59
2021/09/01 15:37:47;;;;;;;7.85;5.10;;;;;;;;;;10280251;28;20068;-59
2021/09/01 15:42:46;;;;;;;8.63;5.07;;;;;;;;;;10280770;28;20083;-59
2021/09/01 15:47:49;;;;;;;13.55;5.97;;;;;;;;;;10279914;28;20533;-58
2021/09/01 15:52:47;;;;;;;16.05;5.70;;;;;;;;;;10280646;28;20106;-59
2021/09/01 15:57:45;;;;;;;17.10;5.93;;;;;;;;;;10280062;28;20045;-59
2021/09/01 16:02:45;;;;;;;7.93;5.03;;;;;;;;;;10279939;28;20049;-59
2021/09/01 16:07:57;;;;;;;8.00;4.70;;;;;;;;;;10278988;28;20072;-59
2021/09/01 16:12:56;;;;;;;7.55;4.10;;;;;;;;;;10279346;28;20073;-59
2021/09/01 16:18:01;;;;;;;5.93;4.28;;;;;;;;;;10279123;28;20414;-59
2021/09/01 16:23:02;;;;;;;10.35;4.65;;;;;;;;;;10278601;28;20052;-58
2021/09/01 16:28:01;;;;;;;8.52;3.72;;;;;;;;;;10278943;28;20041;-58
2021/09/01 16:33:00;;;;;;;5.20;3.67;;;;;;;;;;10278607;28;20076;-58
2021/09/01 16:38:05;;;;;;;5.47;3.80;;;;;;;;;;10278588;28;20045;-59
2021/09/01 16:43:03;;;;;;;;;;;;;;;;;;10291401;28;20072;-59
2021/09/01 16:48:02;;;;;;;11.52;4.03;;;;;;;;;;10298499;28;19967;-59
2021/09/01 16:53:02;;;;;;;4.22;3.22;;;;;;;;;;10291949;28;20072;-60
2021/09/01 16:58:06;;;;;;;6.72;3.40;;;;;;;;;;10302453;28;20052;-58
2021/09/01 17:03:07;;;;;;;4.43;3.72;;;;;;;;;;10289050;28;20090;-59
2021/09/01 17:08:06;;;;;;;11.05;4.90;;;;;;;;;;10293005;28;20502;-60
2021/09/01 17:13:04;;;;;;;9.20;4.72;;;;;;;;;;10296638;28;20489;-58
2021/09/01 17:18:03;;;;;;;6.35;4.38;;;;;;;;;;10279194;28;20069;-58
2021/09/01 17:23:03;;;;;;;10.60;4.70;;;;;;;;;;10286322;28;20087;-59
2021/09/01 17:28:03;;;;;;;8.95;4.28;;;;;;;;;;10281723;28;20121;-58
2021/09/01 17:33:01;;;;;;;5.65;2.80;;;;;;;;;;10291952;28;20088;-59
2021/09/01 17:38:02;;;;;;;6.88;2.90;;;;;;;;;;10279819;28;20072;-59
2021/09/01 17:43:02;;;;;;;9.45;4.13;;;;;;;;;;10287072;28;20080;-59
2021/09/01 17:48:00;;;;;;;6.25;2.63;;;;;;;;;;10292437;28;20064;-59
2021/09/01 17:52:58;;;;;;;4.47;2.95;;;;;;;;;;10293390;28;20081;-59
2021/09/01 17:57:57;;;;;;;7.88;2.35;;;;;;;;;;10296296;28;20060;-62
2021/09/01 18:02:56;;;;;;;7.40;2.72;;;;;;;;;;10299804;28;20071;-59
2021/09/01 18:07:55;;;;;;;7.00;3.20;;;;;;;;;;10294925;28;20079;-59
2021/09/01 18:12:53;;;;;;;7.38;2.90;;;;;;;;;;10299571;28;20083;-59
2021/09/01 18:17:52;;;;;;;4.78;2.30;;;;;;;;;;10300634;28;20340;-59
2021/09/01 18:22:51;;;;;;;7.78;2.85;;;;;;;;;;10300371;28;20048;-59
2021/09/01 18:27:50;;;;;;;6.78;4.15;;;;;;;;;;10306388;28;20060;-58
2021/09/01 18:32:48;;;;;;;11.13;4.30;;;;;;;;;;10300999;28;20083;-58
2021/09/01 18:37:46;;;;;;;4.15;3.13;;;;;;;;;;10282876;28;20047;-59
2021/09/01 18:42:48;;;;;;;5.10;2.70;;;;;;;;;;10283019;28;20087;-59
2021/09/01 18:47:47;;;;;;;6.28;3.28;;;;;;;;;;10288341;28;20076;-57
2021/09/01 18:52:49;;;;;;;6.93;3.80;;;;;;;;;;10293426;28;20072;-56
2021/09/01 18:57:49;;;;;;;5.20;3.22;;;;;;;;;;10297314;28;20080;-59
2021/09/01 19:02:48;;;;;;;5.70;3.20;;;;;;;;;;10302538;28;20053;-59
2021/09/01 19:07:50;;;;;;;4.35;3.22;;;;;;;;;;10288789;28;20069;-55
2021/09/01 19:12:52;;;;;;;10.52;3.30;;;;;;;;;;10294535;28;20068;-57
2021/09/01 19:17:50;;;;;;;6.22;3.50;;;;;;;;;;10298537;28;20064;-58
2021/09/01 19:22:49;;;;;;;6.75;3.60;;;;;;;;;;10322407;28;20079;-55
2021/09/01 19:27:47;;;;;;;6.07;3.20;;;;;;;;;;10320511;28;20079;-60
2021/09/01 19:32:48;;;;;;;5.38;3.42;;;;;;;;;;10321963;28;20080;-60
2021/09/01 19:37:48;;;;;;;6.82;3.30;;;;;;;;;;10321394;28;20048;-60
2021/09/01 19:42:47;;;;;;;6.90;2.92;;;;;;;;;;10321062;28;20048;-59
2021/09/01 19:47:46;;;;;;;4.70;2.88;;;;;;;;;;10313844;28;20083;-57
2021/09/01 19:52:49;;;;;;;6.63;3.20;;;;;;;;;;10320885;28;20531;-55
2021/09/01 19:57:51;;;;;;;6.80;3.10;;;;;;;;;;10320804;28;20041;-59
2021/09/01 20:02:51;;;;;;;4.65;2.70;;;;;;;;;;10320319;28;20063;-58
2021/09/01 20:07:50;;;;;;;6.90;3.97;;;;;;;;;;10320361;28;20052;-58
2021/09/01 20:12:48;;;;;;;3.00;2.58;;;;;;;;;;10320209;28;20090;-57
2021/09/01 20:17:47;;;;;;;5.28;2.83;;;;;;;;;;10319532;28;20052;-59
2021/09/01 20:22:47;;;;;;;4.13;3.08;;;;;;;;;;10318622;28;20060;-58
2021/09/01 20:27:45;;;;;;;3.22;2.92;;;;;;;;;;10319470;28;20417;-60
2021/09/01 20:32:45;;;;;;;5.75;3.15;;;;;;;;;;10319396;28;20087;-58
2021/09/01 20:37:43;;;;;;;6.72;4.05;;;;;;;;;;10318913;28;20063;-58
2021/09/01 20:42:45;;;;;;;4.28;3.88;;;;;;;;;;10318996;28;20056;-59
2021/09/01 20:47:47;;;;;;;5.88;3.80;;;;;;;;;;10317296;28;20524;-58
2021/09/01 20:52:47;;;;;;;9.05;3.50;;;;;;;;;;10318467;28;20498;-59
2021/09/01 20:57:48;;;;;;;4.93;3.70;;;;;;;;;;10318230;28;20045;-59
2021/09/01 21:02:46;;;;;;;4.45;4.05;;;;;;;;;;10318506;28;20084;-59
2021/09/01 21:07:45;;;;;;;4.45;3.58;;;;;;;;;;10318516;28;20037;-59
2021/09/01 21:12:44;;;;;;;4.32;3.92;;;;;;;;;;10317742;28;20079;-59
2021/09/01 21:17:46;;;;;;;3.88;3.45;;;;;;;;;;10317704;28;20405;-59
2021/09/01 21:22:46;;;;;;;4.45;3.13;;;;;;;;;;10317591;28;20052;-59
2021/09/01 21:27:48;;;;;;;4.00;3.60;;;;;;;;;;10317449;28;20050;-59
2021/09/01 21:32:49;;;;;;;4.95;3.30;;;;;;;;;;10316706;28;20416;-59
2021/09/01 21:37:48;;;;;;;4.65;3.33;;;;;;;;;;10317146;28;20045;-58
2021/09/01 21:42:46;;;;;;;5.22;3.30;;;;;;;;;;10317141;28;20044;-60
2021/09/01 21:47:45;;;;;;;6.03;3.78;;;;;;;;;;10316940;28;20508;-59
2021/09/01 21:52:44;;;;;;;6.97;3.97;;;;;;;;;;10317292;28;20111;-58
2021/09/01 21:57:43;;;;;;;5.32;4.32;;;;;;;;;;10316639;28;20272;-59
2021/09/01 22:02:42;;;;;;;8.77;4.05;;;;;;;;;;10316648;28;20516;-59
2021/09/01 22:07:40;;;;;;;5.60;4.53;;;;;;;;;;10316671;28;20044;-59
2021/09/01 22:12:40;;;;;;;11.93;3.88;;;;;;;;;;10316207;28;20083;-59
2021/09/01 22:17:39;;;;;;;9.15;4.07;;;;;;;;;;10316606;28;20049;-59
2021/09/01 22:22:37;;;;;;;9.13;3.78;;;;;;;;;;10316292;28;20044;-59
2021/09/01 22:27:36;;;;;;;7.78;4.45;;;;;;;;;;10316037;28;20504;-58
2021/09/01 22:32:35;;;;;;;6.90;4.10;;;;;;;;;;10315416;28;20086;-58
2021/09/01 22:37:34;;;;;;;10.38;4.82;;;;;;;;;;10315747;28;20480;-58
2021/09/01 22:42:32;;;;;;;5.85;3.80;;;;;;;;;;10315322;28;20076;-59
2021/09/01 22:47:30;;;;;;;5.88;4.30;;;;;;;;;;10322218;28;20077;-58
2021/09/01 22:52:30;;;;;;;7.60;3.80;;;;;;;;;;10323120;28;20087;-59
2021/09/01 22:57:28;;;;;;;6.10;4.38;;;;;;;;;;10322785;28;20041;-59
2021/09/01 23:02:27;;;;;;;8.45;4.97;;;;;;;;;;10323064;28;20051;-59
2021/09/01 23:07:25;;;;;;;6.35;4.70;;;;;;;;;;10322881;28;20068;-59
2021/09/01 23:12:25;;;;;;;7.38;4.35;;;;;;;;;;10322445;28;20102;-58
2021/09/01 23:17:23;;;;;;;6.35;4.38;;;;;;;;;;10322303;28;20049;-58
2021/09/01 23:22:22;;;;;;;6.97;4.65;;;;;;;;;;10322524;28;20051;-58
2021/09/01 23:27:20;;;;;;;9.02;4.40;;;;;;;;;;10321774;28;20051;-58
2021/09/01 23:32:20;;;;;;;5.13;4.22;;;;;;;;;;10320662;28;20048;-58
2021/09/01 23:37:18;;;;;;;5.88;4.47;;;;;;;;;;10321516;28;20052;-57
2021/09/01 23:42:16;;;;;;;6.82;4.05;;;;;;;;;;10321398;28;20072;-59
2021/09/01 23:47:15;;;;;;;17.20;4.95;;;;;;;;;;10320895;28;20412;-59
2021/09/01 23:52:15;;;;;;;8.90;5.03;;;;;;;;;;10320789;28;20047;-58
2021/09/01 23:57:13;;;;;;;7.10;4.47;;;;;;;;;;10319836;28;20083;-59
